sensor_id;sensor_type;location;lat;lon;timestamp;P1;durP1;ratioP1;P2;durP2;ratioP2
25327;SDS011;13279;51.300;12.394;2023-09-30T00:00:10;3.77;;;1.27;;
25327;SDS011;13279;51.300;12.394;2023-09-30T00:02:38;4.70;;;1.33;;
25327;SDS011;13279;51.300;12.394;2023-09-30T00:05:06;4.67;;;1.77;;
25327;SDS011;13279;51.300;12.394;2023-09-30T00:07:34;3.93;;;1.37;;
25327;SDS011;13279;51.300;12.394;2023-09-30T00:10:03;2.10;;;1.40;;
25327;SDS011;13279;51.300;12.394;2023-09-30T00:12:32;8.70;;;1.67;;
25327;SDS011;13279;51.300;12.394;2023-09-30T00:14:59;5.60;;;1.40;;
25327;SDS011;13279;51.300;12.394;2023-09-30T00:17:27;5.77;;;1.63;;
25327;SDS011;13279;51.300;12.394;2023-09-30T00:19:55;7.87;;;1.40;;
25327;SDS011;13279;51.300;12.394;2023-09-30T00:22:22;3.83;;;1.53;;
25327;SDS011;13279;51.300;12.394;2023-09-30T00:24:50;8.23;;;2.10;;
25327;SDS011;13279;51.300;12.394;2023-09-30T00:27:17;3.47;;;1.50;;
25327;SDS011;13279;51.300;12.394;2023-09-30T00:29:46;8.03;;;1.70;;
25327;SDS011;13279;51.300;12.394;2023-09-30T00:32:13;6.03;;;1.70;;
25327;SDS011;13279;51.300;12.394;2023-09-30T00:34:41;12.23;;;1.87;;
25327;SDS011;13279;51.300;12.394;2023-09-30T00:37:09;5.87;;;1.70;;
25327;SDS011;13279;51.300;12.394;2023-09-30T00:39:37;4.33;;;1.60;;
25327;SDS011;13279;51.300;12.394;2023-09-30T00:42:04;7.93;;;1.97;;
25327;SDS011;13279;51.300;12.394;2023-09-30T00:44:32;4.20;;;1.67;;
25327;SDS011;13279;51.300;12.394;2023-09-30T00:47:01;8.63;;;1.90;;
25327;SDS011;13279;51.300;12.394;2023-09-30T00:49:29;5.00;;;2.30;;
25327;SDS011;13279;51.300;12.394;2023-09-30T00:51:56;9.27;;;2.23;;
25327;SDS011;13279;51.300;12.394;2023-09-30T00:54:24;6.90;;;2.30;;
25327;SDS011;13279;51.300;12.394;2023-09-30T00:56:53;6.87;;;1.77;;
25327;SDS011;13279;51.300;12.394;2023-09-30T00:59:23;5.97;;;1.97;;
25327;SDS011;13279;51.300;12.394;2023-09-30T01:01:52;10.03;;;1.93;;
25327;SDS011;13279;51.300;12.394;2023-09-30T01:04:26;6.03;;;2.00;;
25327;SDS011;13279;51.300;12.394;2023-09-30T01:06:54;9.03;;;1.73;;
25327;SDS011;13279;51.300;12.394;2023-09-30T01:09:23;8.33;;;2.10;;
25327;SDS011;13279;51.300;12.394;2023-09-30T01:11:51;5.27;;;1.80;;
25327;SDS011;13279;51.300;12.394;2023-09-30T01:14:25;7.07;;;2.17;;
25327;SDS011;13279;51.300;12.394;2023-09-30T01:16:54;7.17;;;1.73;;
25327;SDS011;13279;51.300;12.394;2023-09-30T01:19:21;6.97;;;2.10;;
25327;SDS011;13279;51.300;12.394;2023-09-30T01:21:53;5.77;;;1.83;;
25327;SDS011;13279;51.300;12.394;2023-09-30T01:24:22;4.57;;;1.67;;
25327;SDS011;13279;51.300;12.394;2023-09-30T01:26:50;4.47;;;2.10;;
25327;SDS011;13279;51.300;12.394;2023-09-30T01:29:18;8.17;;;2.27;;
25327;SDS011;13279;51.300;12.394;2023-09-30T01:31:46;6.17;;;2.10;;
25327;SDS011;13279;51.300;12.394;2023-09-30T01:34:15;5.63;;;2.10;;
25327;SDS011;13279;51.300;12.394;2023-09-30T01:36:43;6.13;;;2.30;;
25327;SDS011;13279;51.300;12.394;2023-09-30T01:39:14;7.33;;;1.83;;
25327;SDS011;13279;51.300;12.394;2023-09-30T01:41:42;5.03;;;2.53;;
25327;SDS011;13279;51.300;12.394;2023-09-30T01:44:10;6.73;;;3.00;;
25327;SDS011;13279;51.300;12.394;2023-09-30T01:46:38;6.80;;;2.00;;
25327;SDS011;13279;51.300;12.394;2023-09-30T01:49:06;4.93;;;2.20;;
25327;SDS011;13279;51.300;12.394;2023-09-30T01:51:34;13.23;;;2.60;;
25327;SDS011;13279;51.300;12.394;2023-09-30T01:54:01;6.43;;;2.27;;
25327;SDS011;13279;51.300;12.394;2023-09-30T01:56:31;9.60;;;2.93;;
25327;SDS011;13279;51.300;12.394;2023-09-30T01:58:59;11.37;;;2.30;;
25327;SDS011;13279;51.300;12.394;2023-09-30T02:01:26;8.70;;;2.63;;
25327;SDS011;13279;51.300;12.394;2023-09-30T02:03:54;8.83;;;2.90;;
25327;SDS011;13279;51.300;12.394;2023-09-30T02:06:21;7.60;;;2.57;;
25327;SDS011;13279;51.300;12.394;2023-09-30T02:08:48;8.47;;;2.37;;
25327;SDS011;13279;51.300;12.394;2023-09-30T02:11:16;11.10;;;2.80;;
25327;SDS011;13279;51.300;12.394;2023-09-30T02:13:45;5.47;;;2.70;;
25327;SDS011;13279;51.300;12.394;2023-09-30T02:16:12;11.93;;;2.73;;
25327;SDS011;13279;51.300;12.394;2023-09-30T02:18:42;4.97;;;2.77;;
25327;SDS011;13279;51.300;12.394;2023-09-30T02:21:11;7.93;;;2.83;;
25327;SDS011;13279;51.300;12.394;2023-09-30T02:23:39;8.20;;;2.60;;
25327;SDS011;13279;51.300;12.394;2023-09-30T02:26:06;10.17;;;2.40;;
25327;SDS011;13279;51.300;12.394;2023-09-30T02:28:33;10.87;;;2.80;;
25327;SDS011;13279;51.300;12.394;2023-09-30T02:31:03;10.37;;;2.87;;
25327;SDS011;13279;51.300;12.394;2023-09-30T02:33:32;7.90;;;2.87;;
25327;SDS011;13279;51.300;12.394;2023-09-30T02:36:01;7.83;;;2.93;;
25327;SDS011;13279;51.300;12.394;2023-09-30T02:38:31;10.23;;;3.30;;
25327;SDS011;13279;51.300;12.394;2023-09-30T02:41:01;6.63;;;2.77;;
25327;SDS011;13279;51.300;12.394;2023-09-30T02:43:29;13.67;;;3.03;;
25327;SDS011;13279;51.300;12.394;2023-09-30T02:45:56;7.07;;;3.23;;
25327;SDS011;13279;51.300;12.394;2023-09-30T02:48:25;16.67;;;3.10;;
25327;SDS011;13279;51.300;12.394;2023-09-30T02:50:53;10.87;;;3.40;;
25327;SDS011;13279;51.300;12.394;2023-09-30T02:53:21;8.53;;;2.97;;
25327;SDS011;13279;51.300;12.394;2023-09-30T02:55:49;11.87;;;3.53;;
25327;SDS011;13279;51.300;12.394;2023-09-30T02:58:23;9.00;;;3.70;;
25327;SDS011;13279;51.300;12.394;2023-09-30T03:00:52;10.97;;;3.33;;
25327;SDS011;13279;51.300;12.394;2023-09-30T03:03:29;4.57;;;2.63;;
25327;SDS011;13279;51.300;12.394;2023-09-30T03:05:59;8.13;;;3.87;;
25327;SDS011;13279;51.300;12.394;2023-09-30T03:08:31;6.67;;;3.57;;
25327;SDS011;13279;51.300;12.394;2023-09-30T03:11:00;7.50;;;3.13;;
25327;SDS011;13279;51.300;12.394;2023-09-30T03:13:29;14.57;;;3.60;;
25327;SDS011;13279;51.300;12.394;2023-09-30T03:15:56;8.07;;;2.97;;
25327;SDS011;13279;51.300;12.394;2023-09-30T03:18:26;12.57;;;3.30;;
25327;SDS011;13279;51.300;12.394;2023-09-30T03:21:00;9.40;;;3.20;;
25327;SDS011;13279;51.300;12.394;2023-09-30T03:23:34;21.60;;;5.70;;
25327;SDS011;13279;51.300;12.394;2023-09-30T03:26:01;10.77;;;4.00;;
25327;SDS011;13279;51.300;12.394;2023-09-30T03:28:29;12.00;;;3.97;;
25327;SDS011;13279;51.300;12.394;2023-09-30T03:30:56;13.27;;;3.77;;
25327;SDS011;13279;51.300;12.394;2023-09-30T03:33:26;15.37;;;4.07;;
25327;SDS011;13279;51.300;12.394;2023-09-30T03:35:53;9.60;;;4.10;;
25327;SDS011;13279;51.300;12.394;2023-09-30T03:38:20;8.37;;;3.93;;
25327;SDS011;13279;51.300;12.394;2023-09-30T03:40:48;13.27;;;4.70;;
25327;SDS011;13279;51.300;12.394;2023-09-30T03:43:16;18.67;;;4.17;;
25327;SDS011;13279;51.300;12.394;2023-09-30T03:45:44;14.10;;;4.07;;
25327;SDS011;13279;51.300;12.394;2023-09-30T03:48:12;9.47;;;4.17;;
25327;SDS011;13279;51.300;12.394;2023-09-30T03:50:41;15.10;;;4.47;;
25327;SDS011;13279;51.300;12.394;2023-09-30T03:53:08;16.37;;;4.27;;
25327;SDS011;13279;51.300;12.394;2023-09-30T03:55:36;13.60;;;4.03;;
25327;SDS011;13279;51.300;12.394;2023-09-30T03:58:04;14.30;;;4.27;;
25327;SDS011;13279;51.300;12.394;2023-09-30T04:00:31;11.97;;;5.23;;
25327;SDS011;13279;51.300;12.394;2023-09-30T04:03:01;19.73;;;3.70;;
25327;SDS011;13279;51.300;12.394;2023-09-30T04:05:29;12.40;;;3.73;;
25327;SDS011;13279;51.300;12.394;2023-09-30T04:08:01;9.07;;;3.87;;
25327;SDS011;13279;51.300;12.394;2023-09-30T04:10:28;18.63;;;4.30;;
25327;SDS011;13279;51.300;12.394;2023-09-30T04:12:58;14.87;;;5.20;;
25327;SDS011;13279;51.300;12.394;2023-09-30T04:15:25;16.43;;;4.80;;
25327;SDS011;13279;51.300;12.394;2023-09-30T04:17:53;12.80;;;3.73;;
25327;SDS011;13279;51.300;12.394;2023-09-30T04:20:20;13.83;;;3.90;;
25327;SDS011;13279;51.300;12.394;2023-09-30T04:22:49;10.27;;;4.27;;
25327;SDS011;13279;51.300;12.394;2023-09-30T04:25:17;9.20;;;3.63;;
25327;SDS011;13279;51.300;12.394;2023-09-30T04:27:45;14.80;;;3.60;;
25327;SDS011;13279;51.300;12.394;2023-09-30T04:30:16;16.97;;;4.10;;
25327;SDS011;13279;51.300;12.394;2023-09-30T04:32:47;17.43;;;4.40;;
25327;SDS011;13279;51.300;12.394;2023-09-30T04:35:27;11.27;;;3.67;;
25327;SDS011;13279;51.300;12.394;2023-09-30T04:38:03;14.17;;;3.73;;
25327;SDS011;13279;51.300;12.394;2023-09-30T04:40:35;13.73;;;4.23;;
25327;SDS011;13279;51.300;12.394;2023-09-30T04:43:25;13.27;;;5.17;;
25327;SDS011;13279;51.300;12.394;2023-09-30T04:45:55;9.70;;;3.17;;
25327;SDS011;13279;51.300;12.394;2023-09-30T04:48:32;14.37;;;4.17;;
25327;SDS011;13279;51.300;12.394;2023-09-30T04:51:06;15.10;;;4.07;;
25327;SDS011;13279;51.300;12.394;2023-09-30T04:53:34;7.97;;;3.60;;
25327;SDS011;13279;51.300;12.394;2023-09-30T04:56:07;12.73;;;4.47;;
25327;SDS011;13279;51.300;12.394;2023-09-30T04:58:36;18.53;;;4.00;;
25327;SDS011;13279;51.300;12.394;2023-09-30T05:01:37;20.40;;;3.87;;
25327;SDS011;13279;51.300;12.394;2023-09-30T05:04:05;13.13;;;3.43;;
25327;SDS011;13279;51.300;12.394;2023-09-30T05:06:37;10.83;;;3.33;;
25327;SDS011;13279;51.300;12.394;2023-09-30T05:09:25;12.00;;;3.80;;
25327;SDS011;13279;51.300;12.394;2023-09-30T05:11:55;12.30;;;3.70;;
25327;SDS011;13279;51.300;12.394;2023-09-30T05:14:23;16.60;;;4.30;;
25327;SDS011;13279;51.300;12.394;2023-09-30T05:17:05;13.97;;;4.20;;
25327;SDS011;13279;51.300;12.394;2023-09-30T05:19:33;13.40;;;4.33;;
25327;SDS011;13279;51.300;12.394;2023-09-30T05:22:02;8.83;;;3.33;;
25327;SDS011;13279;51.300;12.394;2023-09-30T05:24:31;11.07;;;3.97;;
25327;SDS011;13279;51.300;12.394;2023-09-30T05:26:59;15.80;;;4.00;;
25327;SDS011;13279;51.300;12.394;2023-09-30T05:29:27;10.97;;;3.90;;
25327;SDS011;13279;51.300;12.394;2023-09-30T05:31:55;10.83;;;4.07;;
25327;SDS011;13279;51.300;12.394;2023-09-30T05:34:22;13.70;;;4.70;;
25327;SDS011;13279;51.300;12.394;2023-09-30T05:36:50;15.07;;;4.50;;
25327;SDS011;13279;51.300;12.394;2023-09-30T05:39:18;11.77;;;3.93;;
25327;SDS011;13279;51.300;12.394;2023-09-30T05:41:45;10.00;;;3.43;;
25327;SDS011;13279;51.300;12.394;2023-09-30T05:44:15;17.90;;;4.07;;
25327;SDS011;13279;51.300;12.394;2023-09-30T05:46:42;17.30;;;4.50;;
25327;SDS011;13279;51.300;12.394;2023-09-30T05:49:13;10.63;;;4.03;;
25327;SDS011;13279;51.300;12.394;2023-09-30T05:51:40;16.10;;;3.83;;
25327;SDS011;13279;51.300;12.394;2023-09-30T05:54:08;14.47;;;3.37;;
25327;SDS011;13279;51.300;12.394;2023-09-30T05:56:37;13.00;;;3.70;;
25327;SDS011;13279;51.300;12.394;2023-09-30T05:59:06;11.97;;;4.07;;
25327;SDS011;13279;51.300;12.394;2023-09-30T06:01:35;14.80;;;3.80;;
25327;SDS011;13279;51.300;12.394;2023-09-30T06:04:04;13.07;;;3.73;;
25327;SDS011;13279;51.300;12.394;2023-09-30T06:06:32;16.87;;;4.10;;
25327;SDS011;13279;51.300;12.394;2023-09-30T06:09:01;13.67;;;4.00;;
25327;SDS011;13279;51.300;12.394;2023-09-30T06:11:31;13.77;;;4.30;;
25327;SDS011;13279;51.300;12.394;2023-09-30T06:13:59;9.90;;;4.03;;
25327;SDS011;13279;51.300;12.394;2023-09-30T06:16:26;13.70;;;4.47;;
25327;SDS011;13279;51.300;12.394;2023-09-30T06:18:58;15.30;;;4.60;;
25327;SDS011;13279;51.300;12.394;2023-09-30T06:21:26;15.17;;;3.50;;
25327;SDS011;13279;51.300;12.394;2023-09-30T06:23:54;12.77;;;3.73;;
25327;SDS011;13279;51.300;12.394;2023-09-30T06:26:22;16.03;;;4.50;;
25327;SDS011;13279;51.300;12.394;2023-09-30T06:28:54;16.23;;;4.43;;
25327;SDS011;13279;51.300;12.394;2023-09-30T06:31:22;17.07;;;4.50;;
25327;SDS011;13279;51.300;12.394;2023-09-30T06:33:50;11.37;;;4.50;;
25327;SDS011;13279;51.300;12.394;2023-09-30T06:36:18;12.90;;;4.33;;
25327;SDS011;13279;51.300;12.394;2023-09-30T06:38:46;22.10;;;5.03;;
25327;SDS011;13279;51.300;12.394;2023-09-30T06:41:15;12.77;;;3.93;;
25327;SDS011;13279;51.300;12.394;2023-09-30T06:43:43;14.50;;;4.00;;
25327;SDS011;13279;51.300;12.394;2023-09-30T06:46:12;19.87;;;3.90;;
25327;SDS011;13279;51.300;12.394;2023-09-30T06:48:39;17.77;;;3.93;;
25327;SDS011;13279;51.300;12.394;2023-09-30T06:51:07;16.33;;;3.87;;
25327;SDS011;13279;51.300;12.394;2023-09-30T06:53:41;15.50;;;3.63;;
25327;SDS011;13279;51.300;12.394;2023-09-30T06:56:08;12.83;;;3.63;;
25327;SDS011;13279;51.300;12.394;2023-09-30T06:58:35;16.07;;;3.90;;
25327;SDS011;13279;51.300;12.394;2023-09-30T07:01:02;12.53;;;3.80;;
25327;SDS011;13279;51.300;12.394;2023-09-30T07:03:30;15.13;;;2.97;;
25327;SDS011;13279;51.300;12.394;2023-09-30T07:05:58;14.60;;;3.83;;
25327;SDS011;13279;51.300;12.394;2023-09-30T07:08:27;16.93;;;3.77;;
25327;SDS011;13279;51.300;12.394;2023-09-30T07:10:57;10.80;;;3.90;;
25327;SDS011;13279;51.300;12.394;2023-09-30T07:13:26;12.53;;;3.43;;
25327;SDS011;13279;51.300;12.394;2023-09-30T07:15:53;11.57;;;3.13;;
25327;SDS011;13279;51.300;12.394;2023-09-30T07:18:20;6.87;;;3.07;;
25327;SDS011;13279;51.300;12.394;2023-09-30T07:20:50;10.67;;;3.03;;
25327;SDS011;13279;51.300;12.394;2023-09-30T07:23:17;10.33;;;3.00;;
25327;SDS011;13279;51.300;12.394;2023-09-30T07:25:45;11.70;;;3.20;;
25327;SDS011;13279;51.300;12.394;2023-09-30T07:28:15;14.00;;;3.07;;
25327;SDS011;13279;51.300;12.394;2023-09-30T07:30:42;16.63;;;3.50;;
25327;SDS011;13279;51.300;12.394;2023-09-30T07:33:10;9.33;;;3.37;;
25327;SDS011;13279;51.300;12.394;2023-09-30T07:35:37;14.47;;;2.63;;
25327;SDS011;13279;51.300;12.394;2023-09-30T07:38:05;13.47;;;2.90;;
25327;SDS011;13279;51.300;12.394;2023-09-30T07:40:33;10.03;;;2.93;;
25327;SDS011;13279;51.300;12.394;2023-09-30T07:43:00;12.20;;;2.97;;
25327;SDS011;13279;51.300;12.394;2023-09-30T07:45:29;10.00;;;3.60;;
25327;SDS011;13279;51.300;12.394;2023-09-30T07:47:57;9.07;;;2.80;;
25327;SDS011;13279;51.300;12.394;2023-09-30T07:50:24;12.00;;;2.90;;
25327;SDS011;13279;51.300;12.394;2023-09-30T07:52:52;8.67;;;2.93;;
25327;SDS011;13279;51.300;12.394;2023-09-30T07:55:19;10.60;;;2.43;;
25327;SDS011;13279;51.300;12.394;2023-09-30T07:57:47;13.00;;;2.87;;
25327;SDS011;13279;51.300;12.394;2023-09-30T08:00:14;11.00;;;2.80;;
25327;SDS011;13279;51.300;12.394;2023-09-30T08:02:44;9.00;;;2.43;;
25327;SDS011;13279;51.300;12.394;2023-09-30T08:05:11;7.57;;;2.53;;
25327;SDS011;13279;51.300;12.394;2023-09-30T08:07:39;13.67;;;2.60;;
25327;SDS011;13279;51.300;12.394;2023-09-30T08:10:07;17.33;;;3.10;;
25327;SDS011;13279;51.300;12.394;2023-09-30T08:12:39;11.53;;;2.63;;
25327;SDS011;13279;51.300;12.394;2023-09-30T08:15:06;8.03;;;2.90;;
25327;SDS011;13279;51.300;12.394;2023-09-30T08:17:37;11.90;;;2.40;;
25327;SDS011;13279;51.300;12.394;2023-09-30T08:20:07;15.80;;;2.63;;
25327;SDS011;13279;51.300;12.394;2023-09-30T08:22:35;8.80;;;2.87;;
25327;SDS011;13279;51.300;12.394;2023-09-30T08:25:04;10.43;;;2.80;;
25327;SDS011;13279;51.300;12.394;2023-09-30T08:27:33;9.00;;;2.40;;
25327;SDS011;13279;51.300;12.394;2023-09-30T08:30:01;15.87;;;2.87;;
25327;SDS011;13279;51.300;12.394;2023-09-30T08:32:32;13.67;;;3.23;;
25327;SDS011;13279;51.300;12.394;2023-09-30T08:35:00;10.00;;;2.67;;
25327;SDS011;13279;51.300;12.394;2023-09-30T08:37:29;7.50;;;2.70;;
25327;SDS011;13279;51.300;12.394;2023-09-30T08:39:57;13.17;;;3.10;;
25327;SDS011;13279;51.300;12.394;2023-09-30T08:42:24;13.57;;;2.53;;
25327;SDS011;13279;51.300;12.394;2023-09-30T08:44:57;9.17;;;2.97;;
25327;SDS011;13279;51.300;12.394;2023-09-30T08:47:25;12.60;;;3.03;;
25327;SDS011;13279;51.300;12.394;2023-09-30T08:49:54;11.10;;;2.70;;
25327;SDS011;13279;51.300;12.394;2023-09-30T08:52:27;9.83;;;2.43;;
25327;SDS011;13279;51.300;12.394;2023-09-30T08:54:58;11.67;;;2.67;;
25327;SDS011;13279;51.300;12.394;2023-09-30T08:57:26;12.07;;;2.53;;
25327;SDS011;13279;51.300;12.394;2023-09-30T08:59:56;9.00;;;2.87;;
25327;SDS011;13279;51.300;12.394;2023-09-30T09:02:25;15.40;;;3.20;;
25327;SDS011;13279;51.300;12.394;2023-09-30T09:04:52;11.13;;;2.47;;
25327;SDS011;13279;51.300;12.394;2023-09-30T09:07:20;24.40;;;4.13;;
25327;SDS011;13279;51.300;12.394;2023-09-30T09:10:03;10.27;;;2.87;;
25327;SDS011;13279;51.300;12.394;2023-09-30T09:12:33;13.53;;;2.80;;
25327;SDS011;13279;51.300;12.394;2023-09-30T09:15:02;10.33;;;2.47;;
25327;SDS011;13279;51.300;12.394;2023-09-30T09:17:39;14.57;;;3.00;;
25327;SDS011;13279;51.300;12.394;2023-09-30T09:20:09;13.33;;;2.53;;
25327;SDS011;13279;51.300;12.394;2023-09-30T09:22:40;9.90;;;2.20;;
25327;SDS011;13279;51.300;12.394;2023-09-30T09:25:09;10.97;;;2.87;;
25327;SDS011;13279;51.300;12.394;2023-09-30T09:27:38;9.23;;;1.90;;
25327;SDS011;13279;51.300;12.394;2023-09-30T09:30:15;17.47;;;3.50;;
25327;SDS011;13279;51.300;12.394;2023-09-30T09:32:53;10.27;;;2.60;;
25327;SDS011;13279;51.300;12.394;2023-09-30T09:35:29;11.27;;;2.00;;
25327;SDS011;13279;51.300;12.394;2023-09-30T09:37:59;13.63;;;2.53;;
25327;SDS011;13279;51.300;12.394;2023-09-30T09:40:30;10.07;;;2.37;;
25327;SDS011;13279;51.300;12.394;2023-09-30T09:42:59;10.43;;;3.00;;
25327;SDS011;13279;51.300;12.394;2023-09-30T09:45:30;11.27;;;2.63;;
25327;SDS011;13279;51.300;12.394;2023-09-30T09:48:00;8.30;;;2.33;;
25327;SDS011;13279;51.300;12.394;2023-09-30T09:50:30;7.97;;;2.53;;
25327;SDS011;13279;51.300;12.394;2023-09-30T09:52:58;11.17;;;2.57;;
25327;SDS011;13279;51.300;12.394;2023-09-30T09:55:26;11.60;;;2.30;;
25327;SDS011;13279;51.300;12.394;2023-09-30T09:57:56;9.50;;;2.10;;
25327;SDS011;13279;51.300;12.394;2023-09-30T10:00:26;10.40;;;2.60;;
25327;SDS011;13279;51.300;12.394;2023-09-30T10:02:55;10.47;;;2.10;;
25327;SDS011;13279;51.300;12.394;2023-09-30T10:05:23;10.83;;;2.83;;
25327;SDS011;13279;51.300;12.394;2023-09-30T10:07:51;13.20;;;2.30;;
25327;SDS011;13279;51.300;12.394;2023-09-30T10:10:22;10.87;;;2.60;;
25327;SDS011;13279;51.300;12.394;2023-09-30T10:12:51;7.10;;;2.50;;
25327;SDS011;13279;51.300;12.394;2023-09-30T10:15:44;7.03;;;2.33;;
25327;SDS011;13279;51.300;12.394;2023-09-30T10:18:12;11.60;;;2.40;;
25327;SDS011;13279;51.300;12.394;2023-09-30T10:20:40;11.27;;;2.30;;
25327;SDS011;13279;51.300;12.394;2023-09-30T10:23:23;10.83;;;2.10;;
25327;SDS011;13279;51.300;12.394;2023-09-30T10:25:52;7.73;;;2.40;;
25327;SDS011;13279;51.300;12.394;2023-09-30T10:28:33;17.53;;;2.90;;
25327;SDS011;13279;51.300;12.394;2023-09-30T10:31:14;7.23;;;2.23;;
25327;SDS011;13279;51.300;12.394;2023-09-30T10:36:47;8.33;;;2.87;;
25327;SDS011;13279;51.300;12.394;2023-09-30T10:51:10;6.37;;;1.80;;
25327;SDS011;13279;51.300;12.394;2023-09-30T10:53:43;5.97;;;2.40;;
25327;SDS011;13279;51.300;12.394;2023-09-30T10:56:13;10.47;;;2.60;;
25327;SDS011;13279;51.300;12.394;2023-09-30T10:58:42;14.10;;;2.93;;
25327;SDS011;13279;51.300;12.394;2023-09-30T11:01:11;10.17;;;2.10;;
25327;SDS011;13279;51.300;12.394;2023-09-30T11:03:41;12.07;;;2.13;;
25327;SDS011;13279;51.300;12.394;2023-09-30T11:06:13;9.30;;;2.10;;
25327;SDS011;13279;51.300;12.394;2023-09-30T11:08:45;7.70;;;2.07;;
25327;SDS011;13279;51.300;12.394;2023-09-30T11:11:16;11.60;;;2.20;;
25327;SDS011;13279;51.300;12.394;2023-09-30T11:13:44;11.27;;;2.07;;
25327;SDS011;13279;51.300;12.394;2023-09-30T11:16:11;7.57;;;1.90;;
25327;SDS011;13279;51.300;12.394;2023-09-30T11:18:39;8.87;;;2.10;;
25327;SDS011;13279;51.300;12.394;2023-09-30T11:21:09;9.63;;;1.70;;
25327;SDS011;13279;51.300;12.394;2023-09-30T11:23:41;6.73;;;2.40;;
25327;SDS011;13279;51.300;12.394;2023-09-30T11:26:10;6.97;;;1.90;;
25327;SDS011;13279;51.300;12.394;2023-09-30T11:31:48;11.07;;;1.90;;
25327;SDS011;13279;51.300;12.394;2023-09-30T11:34:41;4.90;;;1.40;;
25327;SDS011;13279;51.300;12.394;2023-09-30T11:37:14;10.60;;;1.80;;
25327;SDS011;13279;51.300;12.394;2023-09-30T11:39:58;5.03;;;1.90;;
25327;SDS011;13279;51.300;12.394;2023-09-30T11:42:42;4.93;;;1.83;;
25327;SDS011;13279;51.300;12.394;2023-09-30T11:45:37;7.27;;;2.00;;
25327;SDS011;13279;51.300;12.394;2023-09-30T11:48:16;5.97;;;1.80;;
25327;SDS011;13279;51.300;12.394;2023-09-30T11:50:52;12.80;;;2.63;;
25327;SDS011;13279;51.300;12.394;2023-09-30T11:53:21;11.83;;;2.70;;
25327;SDS011;13279;51.300;12.394;2023-09-30T11:55:48;4.33;;;1.63;;
25327;SDS011;13279;51.300;12.394;2023-09-30T11:58:16;8.50;;;1.60;;
25327;SDS011;13279;51.300;12.394;2023-09-30T12:00:45;9.63;;;2.33;;
25327;SDS011;13279;51.300;12.394;2023-09-30T12:03:16;9.50;;;1.93;;
25327;SDS011;13279;51.300;12.394;2023-09-30T12:05:45;10.23;;;2.60;;
25327;SDS011;13279;51.300;12.394;2023-09-30T12:08:15;6.13;;;1.57;;
25327;SDS011;13279;51.300;12.394;2023-09-30T12:10:43;8.93;;;2.10;;
25327;SDS011;13279;51.300;12.394;2023-09-30T12:13:11;7.53;;;1.97;;
25327;SDS011;13279;51.300;12.394;2023-09-30T12:15:48;5.83;;;1.73;;
25327;SDS011;13279;51.300;12.394;2023-09-30T12:18:20;10.97;;;1.97;;
25327;SDS011;13279;51.300;12.394;2023-09-30T12:21:18;10.90;;;2.37;;
25327;SDS011;13279;51.300;12.394;2023-09-30T12:24:03;7.03;;;1.83;;
25327;SDS011;13279;51.300;12.394;2023-09-30T12:26:47;5.20;;;2.07;;
25327;SDS011;13279;51.300;12.394;2023-09-30T12:29:20;4.43;;;1.37;;
25327;SDS011;13279;51.300;12.394;2023-09-30T12:32:15;8.93;;;2.00;;
25327;SDS011;13279;51.300;12.394;2023-09-30T12:35:06;5.60;;;2.17;;
25327;SDS011;13279;51.300;12.394;2023-09-30T12:38:04;15.00;;;2.70;;
25327;SDS011;13279;51.300;12.394;2023-09-30T12:40:56;8.97;;;2.23;;
25327;SDS011;13279;51.300;12.394;2023-09-30T12:43:30;8.10;;;2.20;;
25327;SDS011;13279;51.300;12.394;2023-09-30T12:46:21;10.23;;;1.80;;
25327;SDS011;13279;51.300;12.394;2023-09-30T12:52:29;7.37;;;2.07;;
25327;SDS011;13279;51.300;12.394;2023-09-30T12:55:23;7.50;;;2.43;;
25327;SDS011;13279;51.300;12.394;2023-09-30T13:01:48;6.30;;;1.83;;
25327;SDS011;13279;51.300;12.394;2023-09-30T13:04:09;8.77;;;2.03;;
25327;SDS011;13279;51.300;12.394;2023-09-30T13:07:04;9.07;;;1.83;;
25327;SDS011;13279;51.300;12.394;2023-09-30T13:09:58;9.00;;;1.80;;
25327;SDS011;13279;51.300;12.394;2023-09-30T13:12:36;6.77;;;2.27;;
25327;SDS011;13279;51.300;12.394;2023-09-30T13:15:39;7.57;;;1.67;;
25327;SDS011;13279;51.300;12.394;2023-09-30T13:18:22;4.80;;;1.90;;
25327;SDS011;13279;51.300;12.394;2023-09-30T13:20:51;7.80;;;2.20;;
25327;SDS011;13279;51.300;12.394;2023-09-30T13:23:26;6.83;;;2.10;;
25327;SDS011;13279;51.300;12.394;2023-09-30T13:26:21;7.30;;;1.73;;
25327;SDS011;13279;51.300;12.394;2023-09-30T13:28:56;7.43;;;2.30;;
25327;SDS011;13279;51.300;12.394;2023-09-30T13:31:37;5.50;;;1.47;;
25327;SDS011;13279;51.300;12.394;2023-09-30T13:34:15;9.80;;;1.97;;
25327;SDS011;13279;51.300;12.394;2023-09-30T13:37:35;12.90;;;2.37;;
25327;SDS011;13279;51.300;12.394;2023-09-30T13:40:11;12.23;;;2.27;;
25327;SDS011;13279;51.300;12.394;2023-09-30T13:42:51;5.90;;;1.77;;
25327;SDS011;13279;51.300;12.394;2023-09-30T13:45:38;7.10;;;1.83;;
25327;SDS011;13279;51.300;12.394;2023-09-30T13:48:45;7.50;;;1.90;;
25327;SDS011;13279;51.300;12.394;2023-09-30T13:51:20;9.83;;;2.13;;
25327;SDS011;13279;51.300;12.394;2023-09-30T13:54:27;13.03;;;2.27;;
25327;SDS011;13279;51.300;12.394;2023-09-30T13:57:18;5.77;;;1.80;;
25327;SDS011;13279;51.300;12.394;2023-09-30T14:00:01;9.73;;;2.33;;
25327;SDS011;13279;51.300;12.394;2023-09-30T14:02:43;7.67;;;2.03;;
25327;SDS011;13279;51.300;12.394;2023-09-30T14:05:40;4.73;;;1.93;;
25327;SDS011;13279;51.300;12.394;2023-09-30T14:08:13;6.93;;;1.83;;
25327;SDS011;13279;51.300;12.394;2023-09-30T14:10:42;10.43;;;1.55;;
25327;SDS011;13279;51.300;12.394;2023-09-30T14:13:34;5.40;;;2.22;;
25327;SDS011;13279;51.300;12.394;2023-09-30T14:16:23;8.07;;;1.70;;
25327;SDS011;13279;51.300;12.394;2023-09-30T14:19:51;9.70;;;2.03;;
25327;SDS011;13279;51.300;12.394;2023-09-30T14:22:56;5.85;;;2.00;;
25327;SDS011;13279;51.300;12.394;2023-09-30T14:25:53;7.47;;;2.10;;
25327;SDS011;13279;51.300;12.394;2023-09-30T14:31:34;7.22;;;2.03;;
25327;SDS011;13279;51.300;12.394;2023-09-30T14:34:15;3.30;;;1.70;;
25327;SDS011;13279;51.300;12.394;2023-09-30T14:37:07;6.78;;;1.52;;
25327;SDS011;13279;51.300;12.394;2023-09-30T14:43:02;9.35;;;2.55;;
25327;SDS011;13279;51.300;12.394;2023-09-30T14:45:57;4.47;;;1.50;;
25327;SDS011;13279;51.300;12.394;2023-09-30T14:49:30;8.18;;;1.88;;
25327;SDS011;13279;51.300;12.394;2023-09-30T14:52:25;6.13;;;2.05;;
25327;SDS011;13279;51.300;12.394;2023-09-30T14:55:20;7.10;;;1.88;;
25327;SDS011;13279;51.300;12.394;2023-09-30T14:58:46;4.35;;;1.27;;
25327;SDS011;13279;51.300;12.394;2023-09-30T15:01:41;7.28;;;1.83;;
25327;SDS011;13279;51.300;12.394;2023-09-30T15:04:24;3.57;;;1.40;;
25327;SDS011;13279;51.300;12.394;2023-09-30T15:07:16;6.30;;;1.77;;
25327;SDS011;13279;51.300;12.394;2023-09-30T15:10:03;3.03;;;1.98;;
25327;SDS011;13279;51.300;12.394;2023-09-30T15:12:54;9.07;;;2.20;;
25327;SDS011;13279;51.300;12.394;2023-09-30T15:16:00;5.43;;;1.90;;
25327;SDS011;13279;51.300;12.394;2023-09-30T15:18:29;7.10;;;1.92;;
25327;SDS011;13279;51.300;12.394;2023-09-30T15:20:57;6.05;;;1.80;;
25327;SDS011;13279;51.300;12.394;2023-09-30T15:27:14;7.15;;;2.15;;
25327;SDS011;13279;51.300;12.394;2023-09-30T15:29:59;4.28;;;1.90;;
25327;SDS011;13279;51.300;12.394;2023-09-30T15:36:27;5.80;;;1.90;;
25327;SDS011;13279;51.300;12.394;2023-09-30T15:39:01;6.85;;;1.92;;
25327;SDS011;13279;51.300;12.394;2023-09-30T15:41:49;11.57;;;2.30;;